Karachi Weather



Karachi's Current Weather

Temprature 12o smoke

smoke

Rain: 0 %

Min Temprature12o
Max Temprature12o
Humidity82
Wind Speed2.57 m/h
Sun Rise07:17:57
Sun Set18:05:45
Current Time: 18-Jan-2021 05:37:13
Lat/Lon: 24.9056, 67.0822




Karachi's Geo Location



Karachi's Weather Forecast

Time Overall Temp Min Temp Max Temp Humidity Wind Speed Rain
18-Jan-2021 (Mon)
08:00:00 clear sky 14.860 14.860 17.860 59 2.88 m/h 0 %
11:00:00 clear sky 22.220 22.220 25.040 30 3.87 m/h 0 %
14:00:00 clear sky 26.700 26.700 27.700 18 2.57 m/h 0 %
17:00:00 clear sky 25.950 25.950 26.060 16 2.39 m/h 0 %
20:00:00 clear sky 19.440 19.440 19.440 25 3.17 m/h 0 %
23:00:00 clear sky 18.430 18.430 18.430 26 3.52 m/h 0 %
19-Jan-2021 (Tue)
02:00:00 clear sky 18.230 18.230 18.230 25 4.04 m/h 0 %
05:00:00 clear sky 17.570 17.570 17.570 26 3.68 m/h 0 %
08:00:00 clear sky 17.660 17.660 17.660 25 2.99 m/h 0 %
11:00:00 clear sky 24.030 24.030 24.030 18 2.09 m/h 0 %
14:00:00 clear sky 26.400 26.400 26.400 16 1.81 m/h 0 %
17:00:00 clear sky 24.200 24.200 24.200 25 5.78 m/h 0 %
20:00:00 clear sky 19.320 19.320 19.320 59 4.15 m/h 0 %
23:00:00 clear sky 17.870 17.870 17.870 59 2.71 m/h 0 %
20-Jan-2021 (Wed)
02:00:00 clear sky 17.940 17.940 17.940 60 3.47 m/h 0 %
05:00:00 clear sky 16.770 16.770 16.770 65 2.42 m/h 0 %
08:00:00 clear sky 17.340 17.340 17.340 55 1.3 m/h 0 %
11:00:00 clear sky 23.840 23.840 23.840 25 1.48 m/h 0 %
14:00:00 clear sky 26.220 26.220 26.220 26 2.78 m/h 0 %
17:00:00 clear sky 24.330 24.330 24.330 47 4.73 m/h 0 %
20:00:00 clear sky 19.820 19.820 19.820 77 3.8 m/h 0 %
23:00:00 clear sky 18.870 18.870 18.870 83 2.95 m/h 0 %
21-Jan-2021 (Thu)
02:00:00 clear sky 18.390 18.390 18.390 84 2.83 m/h 0 %
05:00:00 clear sky 17.800 17.800 17.800 85 2.76 m/h 0 %
08:00:00 clear sky 18.490 18.490 18.490 87 2.07 m/h 0 %
11:00:00 clear sky 24.320 24.320 24.320 57 4.2 m/h 0 %
14:00:00 clear sky 26.060 26.060 26.060 47 6.37 m/h 0 %
17:00:00 clear sky 23.790 23.790 23.790 60 6.63 m/h 0 %
20:00:00 clear sky 20.290 20.290 20.290 84 5.24 m/h 0 %
23:00:00 clear sky 19.940 19.940 19.940 82 5.17 m/h 0 %
22-Jan-2021 (Fri)
02:00:00 clear sky 20.020 20.020 20.020 83 5.93 m/h 0 %
05:00:00 clear sky 20.240 20.240 20.240 84 6.67 m/h 0 %
08:00:00 clear sky 20.090 20.090 20.090 82 5.26 m/h 0 %
11:00:00 clear sky 25.200 25.200 25.200 51 5.03 m/h 0 %
14:00:00 clear sky 28.220 28.220 28.220 31 4.8 m/h 0 %
17:00:00 clear sky 26.990 26.990 26.990 28 6.47 m/h 0 %
20:00:00 clear sky 22.750 22.750 22.750 34 5.37 m/h 0 %
23:00:00 clear sky 20.740 20.740 20.740 22 4.84 m/h 0 %
23-Jan-2021 (Sat)
02:00:00 clear sky 19.200 19.200 19.200 22 5.23 m/h 0 %
05:00:00 clear sky 17.410 17.410 17.410 22 4.93 m/h 0 %

Famous Cities (60)